Time;durP1;ratioP1;P1;durP2;ratioP2;P2;SDS_P1;SDS_P2;PMS_P1;PMS_P2;Temp;Humidity;BMP_temperature;BMP_pressure;BME280_temperature;BME280_humidity;BME280_pressure;Samples;Min_cycle;Max_cycle;Signal;HPM_P1;HPM_P2
2022/11/21 00:01:20;;;;;;;0.47;0.20;;;5.80;99.90;;;;;;5011652;28;20243;-51
2022/11/21 00:03:48;;;;;;;0.20;0.20;;;5.80;99.90;;;;;;5012054;28;20229;-51
2022/11/21 00:06:16;;;;;;;0.10;0.10;;;5.80;99.90;;;;;;5012894;28;20217;-51
2022/11/21 00:08:44;;;;;;;1.43;0.23;;;5.90;99.90;;;;;;5003565;28;20214;-51
2022/11/21 00:11:12;;;;;;;0.20;0.20;;;5.90;99.90;;;;;;4999931;28;20205;-51
2022/11/21 00:13:39;;;;;;;0.40;0.40;;;5.80;99.90;;;;;;4998800;28;20225;-51
2022/11/21 00:16:08;;;;;;;1.23;0.33;;;5.70;99.90;;;;;;5008832;28;20206;-52
2022/11/21 00:18:35;;;;;;;0.20;0.20;;;5.70;99.90;;;;;;5005178;28;20213;-53
2022/11/21 00:21:06;;;;;;;1.37;0.40;;;5.70;99.90;;;;;;5023700;28;20746;-50
2022/11/21 00:23:34;;;;;;;0.40;0.40;;;5.70;99.90;;;;;;5022854;28;20237;-51
2022/11/21 00:26:06;;;;;;;0.60;0.60;;;5.60;99.90;;;;;;5013061;28;20198;-52
2022/11/21 00:28:34;;;;;;;0.87;0.60;;;5.60;99.90;;;;;;5004215;28;20322;-52
2022/11/21 00:31:02;;;;;;;1.23;0.60;;;5.60;99.90;;;;;;5000028;28;20203;-51
2022/11/21 00:33:29;;;;;;;0.50;0.50;;;5.60;99.90;;;;;;5006150;28;20241;-51
2022/11/21 00:35:56;;;;;;;2.17;0.70;;;5.60;99.90;;;;;;5001197;28;20626;-51
2022/11/21 00:38:24;;;;;;;1.80;0.50;;;5.60;99.90;;;;;;4992512;28;20210;-51
2022/11/21 00:40:51;;;;;;;1.73;0.80;;;5.50;99.90;;;;;;4999827;28;20236;-50
2022/11/21 00:43:18;;;;;;;0.70;0.70;;;5.50;99.90;;;;;;5003797;28;20233;-51
2022/11/21 00:45:46;;;;;;;1.37;0.50;;;5.50;99.90;;;;;;5009587;28;20659;-49
2022/11/21 00:48:13;;;;;;;0.70;0.70;;;5.50;99.90;;;;;;5011556;28;20766;-51
2022/11/21 00:50:40;;;;;;;1.17;0.80;;;5.40;99.90;;;;;;5002836;28;20203;-51
2022/11/21 00:53:07;;;;;;;1.13;0.60;;;5.50;99.90;;;;;;4998680;28;20227;-50
2022/11/21 00:55:36;;;;;;;0.80;0.60;;;5.40;99.90;;;;;;4997088;28;20199;-51
2022/11/21 00:58:03;;;;;;;1.57;0.50;;;5.40;99.90;;;;;;5000120;28;20229;-51
2022/11/21 01:00:30;;;;;;;0.90;0.63;;;5.40;99.90;;;;;;4994777;28;20218;-50
2022/11/21 01:02:58;;;;;;;1.07;0.70;;;5.40;99.90;;;;;;4999802;28;20222;-51
2022/11/21 01:05:25;;;;;;;0.80;0.80;;;5.40;99.90;;;;;;4991886;28;20230;-50
2022/11/21 01:07:52;;;;;;;0.70;0.70;;;5.40;99.90;;;;;;5000736;28;20214;-51
2022/11/21 01:10:19;;;;;;;0.50;0.50;;;5.40;99.90;;;;;;5009303;28;20206;-51
2022/11/21 01:12:46;;;;;;;0.80;0.50;;;5.40;99.90;;;;;;5007973;28;20230;-51
2022/11/21 01:15:14;;;;;;;0.73;0.60;;;5.30;99.90;;;;;;4999227;28;20196;-51
2022/11/21 01:17:41;;;;;;;1.17;1.17;;;5.40;99.90;;;;;;4992117;28;20210;-52
2022/11/21 01:20:11;;;;;;;0.80;0.80;;;5.30;99.90;;;;;;4994554;28;20745;-51
2022/11/21 01:22:38;;;;;;;0.53;0.53;;;5.30;99.90;;;;;;5002187;28;20669;-51
2022/11/21 01:25:05;;;;;;;0.60;0.60;;;5.40;99.90;;;;;;5002613;28;20214;-52
2022/11/21 01:27:32;;;;;;;0.80;0.60;;;5.40;99.90;;;;;;5010141;28;20205;-52
2022/11/21 01:29:59;;;;;;;1.43;0.60;;;5.40;99.90;;;;;;5000056;28;20205;-51
2022/11/21 01:32:26;;;;;;;0.60;0.60;;;5.40;99.90;;;;;;4991716;28;20217;-52
2022/11/21 01:34:53;;;;;;;2.33;0.40;;;5.40;99.90;;;;;;4999874;28;20578;-51
2022/11/21 01:37:22;;;;;;;1.07;0.80;;;5.40;99.90;;;;;;4993179;28;20216;-52
2022/11/21 01:39:49;;;;;;;0.47;0.47;;;5.50;99.90;;;;;;5001212;28;20204;-52
2022/11/21 01:42:16;;;;;;;0.70;0.70;;;5.60;99.90;;;;;;4998153;28;20239;-51
2022/11/21 01:44:49;;;;;;;2.93;0.60;;;5.50;99.90;;;;;;5001794;28;20224;-52
2022/11/21 01:47:16;;;;;;;4.27;0.57;;;5.60;99.90;;;;;;5002003;28;20202;-51
2022/11/21 01:49:44;;;;;;;0.63;0.40;;;5.50;99.90;;;;;;4993702;28;20273;-51
2022/11/21 01:52:14;;;;;;;0.67;0.37;;;5.50;99.90;;;;;;4995200;28;20214;-51
2022/11/21 01:54:47;;;;;;;0.80;0.37;;;5.50;99.90;;;;;;5001252;28;20195;-52
2022/11/21 01:57:17;;;;;;;0.40;0.40;;;5.50;99.90;;;;;;4995244;28;20218;-51
2022/11/21 01:59:47;;;;;;;0.70;0.40;;;5.40;99.90;;;;;;5006593;28;20710;-51
2022/11/21 02:02:17;;;;;;;0.50;0.50;;;5.40;99.90;;;;;;5005152;28;20213;-51
2022/11/21 02:04:45;;;;;;;0.73;0.60;;;5.40;99.90;;;;;;4998968;28;20232;-52
2022/11/21 02:07:14;;;;;;;0.50;0.37;;;5.40;99.90;;;;;;4999024;28;20698;-51
2022/11/21 02:09:46;;;;;;;0.50;0.50;;;5.40;99.90;;;;;;5009879;28;20604;-51
2022/11/21 02:12:21;;;;;;;0.60;0.60;;;5.40;99.90;;;;;;5001487;28;20703;-51
2022/11/21 02:14:48;;;;;;;0.43;0.43;;;5.40;99.90;;;;;;5011607;28;20202;-52
2022/11/21 02:17:19;;;;;;;0.77;0.60;;;5.40;99.90;;;;;;5001337;28;20206;-52
2022/11/21 02:19:53;;;;;;;0.70;0.70;;;5.40;99.90;;;;;;4994986;28;20216;-51
2022/11/21 02:22:32;;;;;;;0.83;0.83;;;5.40;99.90;;;;;;5003543;28;20205;-52
2022/11/21 02:25:07;;;;;;;0.80;0.67;;;5.40;99.90;;;;;;5001685;28;20250;-51
2022/11/21 02:27:34;;;;;;;0.70;0.50;;;5.30;99.90;;;;;;5009192;28;20204;-51
2022/11/21 02:30:03;;;;;;;4.77;0.70;;;5.40;99.90;;;;;;5002710;28;20205;-51
2022/11/21 02:32:34;;;;;;;1.87;0.60;;;5.40;99.90;;;;;;4994640;28;20239;-51
2022/11/21 02:35:01;;;;;;;0.40;0.40;;;5.40;99.90;;;;;;4994093;28;20236;-51
2022/11/21 02:37:29;;;;;;;0.60;0.50;;;5.40;99.90;;;;;;5011223;28;20233;-51
2022/11/21 02:39:58;;;;;;;0.73;0.70;;;5.40;99.90;;;;;;5003962;28;20213;-52
2022/11/21 02:42:33;;;;;;;2.30;0.60;;;5.40;99.90;;;;;;5005901;28;20205;-51
2022/11/21 02:45:07;;;;;;;1.10;0.97;;;5.30;99.90;;;;;;5001556;28;20222;-51
2022/11/21 02:47:37;;;;;;;1.03;0.80;;;5.30;99.90;;;;;;5012045;28;20205;-52
2022/11/21 02:50:13;;;;;;;0.63;0.63;;;5.30;99.90;;;;;;5002033;28;20205;-51
2022/11/21 02:52:40;;;;;;;1.20;0.67;;;5.30;99.90;;;;;;5010904;28;20703;-51
2022/11/21 02:55:10;;;;;;;0.40;0.40;;;5.20;99.90;;;;;;5013380;28;20203;-51
2022/11/21 02:57:38;;;;;;;0.50;0.50;;;5.30;99.90;;;;;;5012771;28;20525;-52
2022/11/21 03:00:07;;;;;;;0.67;0.67;;;5.30;99.90;;;;;;5000999;28;20303;-51
2022/11/21 03:02:34;;;;;;;0.93;0.30;;;5.30;99.90;;;;;;5001856;28;20337;-51
2022/11/21 03:05:01;;;;;;;0.40;0.30;;;5.30;99.90;;;;;;5005201;28;20225;-52
2022/11/21 03:07:28;;;;;;;0.50;0.40;;;5.30;99.90;;;;;;4994002;28;20221;-51
2022/11/21 03:09:56;;;;;;;0.53;0.33;;;5.30;99.90;;;;;;4999376;28;20209;-51
2022/11/21 03:12:23;;;;;;;1.63;0.40;;;5.30;99.90;;;;;;5008192;28;20212;-51
2022/11/21 03:14:51;;;;;;;0.37;0.33;;;5.30;99.90;;;;;;5010481;28;20213;-52
2022/11/21 03:17:18;;;;;;;0.20;0.20;;;5.40;99.90;;;;;;5007811;28;20212;-51
2022/11/21 03:19:45;;;;;;;0.30;0.30;;;5.50;99.90;;;;;;5002804;28;20207;-51
2022/11/21 03:22:14;;;;;;;0.30;0.30;;;5.40;99.90;;;;;;5013294;28;20217;-51
2022/11/21 03:24:41;;;;;;;0.20;0.20;;;5.40;99.90;;;;;;5041650;23;20236;-48
2022/11/21 03:27:08;;;;;;;0.50;0.37;;;5.50;99.90;;;;;;5026130;28;20196;-48
2022/11/21 03:29:35;;;;;;;0.20;0.20;;;5.60;99.90;;;;;;5033468;28;20233;-48
2022/11/21 03:32:03;;;;;;;0.30;0.30;;;5.50;99.90;;;;;;5029019;28;20216;-49
2022/11/21 03:34:33;;;;;;;0.20;0.20;;;5.50;99.90;;;;;;5032710;28;20216;-48
2022/11/21 03:37:00;;;;;;;0.60;0.40;;;5.50;99.90;;;;;;5032684;28;20650;-48
2022/11/21 03:39:30;;;;;;;0.30;0.30;;;5.50;99.90;;;;;;5022583;28;20203;-48
2022/11/21 03:41:57;;;;;;;1.70;0.40;;;5.40;99.90;;;;;;5026932;28;20203;-48
2022/11/21 03:44:28;;;;;;;0.30;0.30;;;5.40;99.90;;;;;;5012703;28;20253;-48
2022/11/21 03:46:55;;;;;;;0.30;0.30;;;5.40;99.90;;;;;;5021990;28;20207;-48
2022/11/21 03:49:23;;;;;;;0.60;0.60;;;5.40;99.90;;;;;;5024913;28;20256;-48
2022/11/21 03:51:50;;;;;;;3.03;0.50;;;5.40;99.90;;;;;;5030157;28;20805;-48
2022/11/21 03:54:17;;;;;;;1.40;0.50;;;5.40;99.90;;;;;;5031688;28;20228;-48
2022/11/21 03:56:44;;;;;;;0.73;0.40;;;5.30;99.90;;;;;;5028517;28;20200;-49
2022/11/21 03:59:11;;;;;;;0.40;0.40;;;5.30;99.90;;;;;;5013378;28;20208;-48
2022/11/21 04:01:38;;;;;;;0.40;0.40;;;5.30;99.90;;;;;;5015838;28;20220;-48
2022/11/21 04:04:05;;;;;;;2.10;0.60;;;5.30;99.90;;;;;;5026513;28;20298;-48
2022/11/21 04:06:34;;;;;;;0.70;0.70;;;5.30;99.90;;;;;;5020542;28;20272;-48
2022/11/21 04:09:01;;;;;;;2.60;0.60;;;5.30;99.90;;;;;;5033460;28;20204;-48
2022/11/21 04:11:28;;;;;;;0.40;0.40;;;5.30;99.90;;;;;;5026686;28;20646;-48
2022/11/21 04:13:55;;;;;;;0.63;0.63;;;5.30;99.90;;;;;;5049472;28;20335;-49
2022/11/21 04:16:22;;;;;;;1.70;0.30;;;5.30;99.90;;;;;;5053606;28;20228;-48
2022/11/21 04:18:49;;;;;;;0.33;0.33;;;5.30;99.90;;;;;;5051848;28;20653;-48
2022/11/21 04:21:16;;;;;;;0.57;0.57;;;5.30;99.90;;;;;;5045328;28;20312;-48
2022/11/21 04:23:44;;;;;;;1.33;0.30;;;5.30;99.90;;;;;;5040008;28;20236;-51
2022/11/21 04:26:11;;;;;;;0.30;0.30;;;5.30;99.90;;;;;;5049801;28;20221;-48
2022/11/21 04:28:38;;;;;;;0.20;0.20;;;5.30;99.90;;;;;;5026274;28;20203;-48
2022/11/21 04:31:06;;;;;;;0.30;0.30;;;5.40;99.90;;;;;;5031241;28;20714;-47
2022/11/21 04:33:33;;;;;;;0.40;0.40;;;5.40;99.90;;;;;;5023219;28;20209;-48
2022/11/21 04:36:00;;;;;;;0.80;0.80;;;5.30;99.90;;;;;;5032136;28;20203;-48
2022/11/21 04:38:28;;;;;;;1.43;0.80;;;5.30;99.90;;;;;;5028149;28;20228;-48
2022/11/21 04:40:56;;;;;;;1.73;0.57;;;5.30;99.90;;;;;;5031957;28;20196;-48
2022/11/21 04:43:23;;;;;;;1.63;0.90;;;5.30;99.90;;;;;;5031423;28;20778;-48
2022/11/21 04:45:50;;;;;;;0.93;0.40;;;5.30;99.90;;;;;;5032068;28;20235;-48
2022/11/21 04:48:17;;;;;;;2.90;0.50;;;5.30;99.90;;;;;;5031843;28;20212;-48
2022/11/21 04:50:45;;;;;;;0.40;0.40;;;5.30;99.90;;;;;;5032122;28;20231;-50
2022/11/21 04:53:13;;;;;;;0.67;0.33;;;5.30;99.90;;;;;;5030277;28;20211;-48
2022/11/21 04:55:39;;;;;;;0.47;0.30;;;5.30;99.90;;;;;;5022053;28;20226;-48
2022/11/21 04:58:08;;;;;;;0.30;0.30;;;5.40;99.90;;;;;;5019424;28;20205;-48
2022/11/21 05:00:35;;;;;;;0.93;0.40;;;5.40;99.90;;;;;;5011956;28;20225;-50
2022/11/21 05:03:03;;;;;;;0.70;0.57;;;5.30;99.90;;;;;;5020907;28;20563;-47
2022/11/21 05:05:30;;;;;;;0.43;0.40;;;5.30;99.90;;;;;;5023188;28;20721;-48
2022/11/21 05:07:57;;;;;;;0.30;0.30;;;5.30;99.90;;;;;;5031594;28;20676;-47
2022/11/21 05:10:25;;;;;;;0.60;0.50;;;5.30;99.90;;;;;;5031412;28;20211;-48
2022/11/21 05:15:43;;;;;;;0.80;0.37;;;5.40;99.90;;;;;;5020622;28;20681;-51
2022/11/21 05:18:11;;;;;;;0.30;0.30;;;5.40;99.90;;;;;;5026037;28;20206;-50
2022/11/21 05:20:38;;;;;;;0.30;0.30;;;5.40;99.90;;;;;;5028697;28;20205;-49
2022/11/21 05:23:05;;;;;;;0.30;0.30;;;5.40;99.90;;;;;;5021607;28;20202;-50
2022/11/21 05:25:32;;;;;;;1.07;0.30;;;5.40;99.90;;;;;;5029666;28;20701;-49
2022/11/21 05:27:59;;;;;;;2.63;0.30;;;5.30;99.90;;;;;;5025325;28;20758;-47
2022/11/21 05:30:26;;;;;;;0.40;0.40;;;5.30;99.90;;;;;;5021718;28;20644;-48
2022/11/21 05:32:54;;;;;;;0.53;0.30;;;5.30;99.90;;;;;;5019628;28;20440;-48
2022/11/21 05:35:21;;;;;;;0.50;0.50;;;5.40;99.90;;;;;;5021610;28;20220;-47
2022/11/21 05:37:48;;;;;;;0.50;0.33;;;5.40;99.90;;;;;;5022931;28;20243;-50
2022/11/21 05:40:15;;;;;;;0.50;0.50;;;5.40;99.90;;;;;;5030295;28;20209;-50
2022/11/21 05:45:27;;;;;;;0.20;0.20;;;5.40;99.90;;;;;;5030288;28;20332;-48
2022/11/21 05:47:56;;;;;;;1.30;0.20;;;5.40;99.90;;;;;;5027722;28;20587;-48
2022/11/21 05:50:23;;;;;;;2.20;0.43;;;5.40;99.90;;;;;;5031041;28;20234;-49
2022/11/21 05:52:50;;;;;;;0.77;0.60;;;5.40;99.90;;;;;;5030595;28;20208;-47
2022/11/21 05:55:17;;;;;;;1.03;0.27;;;5.50;99.90;;;;;;5025735;28;20220;-49
2022/11/21 05:57:44;;;;;;;1.43;0.20;;;5.50;99.90;;;;;;5016173;28;20197;-50
2022/11/21 06:00:14;;;;;;;0.30;0.30;;;5.40;99.90;;;;;;5024340;28;20655;-51
2022/11/21 06:05:26;;;;;;;0.33;0.20;;;5.40;99.90;;;;;;5027265;28;20234;-48
2022/11/21 06:07:53;;;;;;;0.20;0.20;;;5.50;99.90;;;;;;5021964;28;20264;-48
2022/11/21 06:10:20;;;;;;;1.33;0.30;;;5.50;99.90;;;;;;5031166;28;20201;-48
2022/11/21 06:12:47;;;;;;;0.10;0.10;;;5.50;99.90;;;;;;5030871;28;20196;-48
2022/11/21 06:15:14;;;;;;;1.83;0.20;;;5.50;99.90;;;;;;5023580;28;20230;-49
2022/11/21 06:17:41;;;;;;;2.23;0.20;;;5.50;99.90;;;;;;5023707;28;20197;-49
2022/11/21 06:20:10;;;;;;;0.30;0.20;;;5.60;99.90;;;;;;5028949;28;20266;-48
2022/11/21 06:22:38;;;;;;;0.20;0.20;;;5.60;99.90;;;;;;5030450;28;20208;-49
2022/11/21 06:25:06;;;;;;;1.80;0.10;;;5.70;99.90;;;;;;5024890;28;20639;-49
2022/11/21 06:27:33;;;;;;;1.17;0.10;;;5.60;99.90;;;;;;5027760;28;20204;-48
2022/11/21 06:30:00;;;;;;;0.87;0.23;;;5.60;99.90;;;;;;5026349;28;20205;-48
2022/11/21 06:32:27;;;;;;;0.30;0.10;;;5.60;99.90;;;;;;5026966;28;20293;-49
2022/11/21 06:34:54;;;;;;;0.20;0.20;;;5.60;99.90;;;;;;5025567;28;20217;-48
2022/11/21 06:37:21;;;;;;;0.10;0.10;;;5.60;99.90;;;;;;5022334;28;20210;-48
2022/11/21 06:39:49;;;;;;;0.93;0.20;;;5.60;99.90;;;;;;5027946;28;20199;-48
2022/11/21 06:42:16;;;;;;;1.00;0.20;;;5.70;99.90;;;;;;5029612;28;20285;-48
2022/11/21 06:44:44;;;;;;;0.70;0.70;;;5.70;99.90;;;;;;5029045;28;20274;-48
2022/11/21 06:47:11;;;;;;;0.60;0.60;;;5.70;99.90;;;;;;5028867;28;20223;-49
2022/11/21 06:49:38;;;;;;;0.30;0.30;;;5.70;99.90;;;;;;5029529;28;20226;-49
2022/11/21 06:52:05;;;;;;;3.03;0.40;;;5.70;99.90;;;;;;5030334;28;20259;-49
2022/11/21 06:54:32;;;;;;;3.80;1.80;;;5.70;99.90;;;;;;5032134;28;20219;-48
2022/11/21 06:57:01;;;;;;;0.30;0.30;;;5.70;99.90;;;;;;5032721;28;20197;-48
2022/11/21 06:59:31;;;;;;;0.30;0.30;;;5.70;99.90;;;;;;5030686;28;20220;-50
2022/11/21 07:01:58;;;;;;;2.30;0.30;;;5.70;99.90;;;;;;5030121;28;20200;-48
2022/11/21 07:04:25;;;;;;;0.77;0.20;;;5.70;99.90;;;;;;5028269;28;20316;-48
2022/11/21 07:06:52;;;;;;;0.60;0.20;;;5.70;99.90;;;;;;5030670;28;20221;-50
2022/11/21 07:09:19;;;;;;;0.40;0.40;;;5.70;99.90;;;;;;5027431;28;20227;-48
2022/11/21 07:11:46;;;;;;;1.43;0.40;;;5.70;99.90;;;;;;5025509;28;20205;-48
2022/11/21 07:14:14;;;;;;;0.20;0.20;;;5.70;99.90;;;;;;5033650;28;20225;-48
2022/11/21 07:16:41;;;;;;;1.83;0.50;;;5.70;99.90;;;;;;5036112;28;20203;-49
2022/11/21 07:19:08;;;;;;;1.43;0.50;;;5.70;99.90;;;;;;5030744;28;20610;-48
2022/11/21 07:21:35;;;;;;;0.30;0.30;;;5.80;99.90;;;;;;5015120;28;20521;-48
2022/11/21 07:24:02;;;;;;;0.20;0.20;;;5.80;99.90;;;;;;5013951;28;20232;-48
2022/11/21 07:26:29;;;;;;;1.23;0.60;;;5.80;99.90;;;;;;5032708;28;20777;-48
2022/11/21 07:28:56;;;;;;;1.70;0.77;;;5.80;99.90;;;;;;5014157;28;20631;-48
2022/11/21 07:31:24;;;;;;;5.60;2.40;;;5.90;99.90;;;;;;5013427;28;20214;-48
2022/11/21 07:33:51;;;;;;;4.87;1.13;;;5.90;99.90;;;;;;5028902;28;20772;-49
2022/11/21 07:36:18;;;;;;;0.50;0.50;;;5.90;99.90;;;;;;5032881;28;20734;-48
2022/11/21 07:38:46;;;;;;;1.63;0.40;;;5.90;99.90;;;;;;5032171;28;20755;-48
2022/11/21 07:41:13;;;;;;;3.93;0.80;;;5.90;99.90;;;;;;5027347;28;20210;-49
2022/11/21 07:43:40;;;;;;;1.90;0.83;;;5.90;99.90;;;;;;5029100;28;20209;-48
2022/11/21 07:46:07;;;;;;;0.50;0.50;;;5.90;99.90;;;;;;5031913;28;20229;-49
2022/11/21 07:48:35;;;;;;;0.50;0.50;;;6.00;99.90;;;;;;5025513;28;20225;-49
2022/11/21 07:51:05;;;;;;;0.70;0.40;;;6.00;99.90;;;;;;5025766;28;20202;-49
2022/11/21 07:53:32;;;;;;;1.17;0.50;;;6.00;99.90;;;;;;5025017;28;20205;-48
2022/11/21 07:55:59;;;;;;;2.10;0.80;;;6.00;99.90;;;;;;5032986;28;20201;-48
2022/11/21 07:58:26;;;;;;;2.00;0.80;;;6.10;99.90;;;;;;5026997;28;20200;-47
2022/11/21 08:00:53;;;;;;;3.73;0.50;;;6.10;99.90;;;;;;5030578;28;20677;-49
2022/11/21 08:03:21;;;;;;;0.80;0.50;;;6.10;99.90;;;;;;5031942;28;20272;-48
2022/11/21 08:05:50;;;;;;;0.30;0.30;;;6.10;99.90;;;;;;5029316;28;20707;-48
2022/11/21 08:08:17;;;;;;;0.53;0.40;;;6.10;99.90;;;;;;5022533;28;20210;-47
2022/11/21 08:10:45;;;;;;;0.80;0.53;;;6.10;99.90;;;;;;5019963;28;20212;-48
2022/11/21 08:13:13;;;;;;;0.73;0.30;;;6.20;99.90;;;;;;5023253;28;20270;-48
2022/11/21 08:15:41;;;;;;;0.63;0.40;;;6.20;99.90;;;;;;5028943;28;20235;-48
2022/11/21 08:18:09;;;;;;;1.70;0.40;;;6.30;99.90;;;;;;5015335;28;20254;-48
2022/11/21 08:20:36;;;;;;;0.47;0.20;;;6.40;99.90;;;;;;5020332;28;20202;-48
2022/11/21 08:23:05;;;;;;;0.60;0.60;;;6.40;99.90;;;;;;5023461;28;20624;-48
2022/11/21 08:25:32;;;;;;;0.83;0.30;;;6.40;99.90;;;;;;5023739;28;20232;-48
2022/11/21 08:28:01;;;;;;;1.77;0.50;;;6.50;99.90;;;;;;5032394;28;20201;-48
2022/11/21 08:30:28;;;;;;;0.60;0.40;;;6.60;99.90;;;;;;5030955;28;20205;-48
2022/11/21 08:32:57;;;;;;;1.90;0.90;;;6.60;99.90;;;;;;5030224;28;20254;-49
2022/11/21 08:35:24;;;;;;;0.60;0.60;;;6.60;99.90;;;;;;5027932;28;20224;-48
2022/11/21 08:37:56;;;;;;;3.17;0.80;;;6.60;99.90;;;;;;5024182;28;20209;-48
2022/11/21 08:40:24;;;;;;;1.27;0.80;;;6.50;99.90;;;;;;5013249;28;20200;-48
2022/11/21 08:42:56;;;;;;;0.40;0.40;;;6.50;99.90;;;;;;5028079;28;20202;-48
2022/11/21 08:45:23;;;;;;;1.37;0.50;;;6.50;99.90;;;;;;5027544;28;20226;-48
2022/11/21 08:47:50;;;;;;;1.60;0.30;;;6.50;99.90;;;;;;5028674;28;20225;-48
2022/11/21 08:50:17;;;;;;;1.70;0.53;;;6.60;99.90;;;;;;5027197;28;20212;-48
2022/11/21 08:52:44;;;;;;;1.50;0.40;;;6.60;99.90;;;;;;5029386;28;20201;-49
2022/11/21 08:55:12;;;;;;;0.70;0.60;;;6.60;99.90;;;;;;5026443;28;20271;-48
2022/11/21 08:57:41;;;;;;;0.53;0.30;;;6.70;99.90;;;;;;5027361;28;20210;-48
2022/11/21 09:00:11;;;;;;;2.17;0.83;;;6.70;99.90;;;;;;5022547;28;20245;-48
2022/11/21 09:02:38;;;;;;;2.30;0.60;;;6.70;99.90;;;;;;5023164;28;20200;-48
2022/11/21 09:05:06;;;;;;;0.70;0.40;;;6.60;99.90;;;;;;5026984;28;20222;-48
2022/11/21 09:07:33;;;;;;;6.80;0.40;;;6.60;99.90;;;;;;5027431;28;20216;-49
2022/11/21 09:10:00;;;;;;;0.60;0.40;;;6.70;99.90;;;;;;5023601;28;20204;-49
2022/11/21 09:12:27;;;;;;;0.90;0.40;;;6.80;99.90;;;;;;5023869;28;20205;-48
2022/11/21 09:20:24;;;;;;;1.23;0.30;;;7.00;99.90;;;;;;5026604;28;20228;-49
2022/11/21 09:22:51;;;;;;;0.90;0.30;;;7.30;99.90;;;;;;5031821;28;20212;-49
2022/11/21 09:25:18;;;;;;;0.30;0.30;;;7.40;99.90;;;;;;5029533;28;20314;-49
2022/11/21 09:27:45;;;;;;;0.20;0.20;;;7.50;99.90;;;;;;5028937;28;20276;-49
2022/11/21 09:30:14;;;;;;;0.57;0.27;;;7.60;99.90;;;;;;5025005;28;20201;-48
2022/11/21 09:32:41;;;;;;;0.60;0.37;;;7.80;99.90;;;;;;5030721;28;20210;-48
2022/11/21 09:35:09;;;;;;;1.23;0.50;;;7.80;99.90;;;;;;5018110;28;20276;-49
2022/11/21 09:37:36;;;;;;;3.03;0.77;;;7.90;99.90;;;;;;5025135;28;20207;-48
2022/11/21 09:40:04;;;;;;;0.67;0.20;;;8.00;99.90;;;;;;5023795;28;20203;-49
2022/11/21 09:43:03;;;;;;;0.63;0.40;;;8.10;99.90;;;;;;5030535;28;20231;-49
2022/11/21 09:45:36;;;;;;;0.93;0.20;;;8.10;99.90;;;;;;5009225;28;20709;-48
2022/11/21 09:48:08;;;;;;;2.30;0.37;;;8.00;99.90;;;;;;5030736;28;20223;-48
2022/11/21 09:50:38;;;;;;;7.30;0.77;;;8.00;99.90;;;;;;5030527;28;20204;-49
2022/11/21 09:53:09;;;;;;;0.60;0.60;;;8.20;99.90;;;;;;5030835;28;20208;-48
2022/11/21 09:55:44;;;;;;;2.30;0.40;;;8.20;99.90;;;;;;5031553;28;20247;-48
2022/11/21 09:58:20;;;;;;;0.60;0.40;;;8.30;99.90;;;;;;5030655;28;20233;-48
2022/11/21 10:00:51;;;;;;;0.67;0.40;;;8.40;99.90;;;;;;5017262;28;20264;-50
2022/11/21 10:03:20;;;;;;;0.37;0.37;;;8.40;99.90;;;;;;5010816;28;20221;-50
2022/11/21 10:05:51;;;;;;;0.37;0.20;;;8.50;99.90;;;;;;5011453;28;20228;-48
2022/11/21 10:08:29;;;;;;;1.10;0.23;;;8.90;99.90;;;;;;5011799;28;20222;-48
2022/11/21 10:11:00;;;;;;;0.50;0.50;;;9.10;99.90;;;;;;5024176;28;20236;-50
2022/11/21 10:13:46;;;;;;;1.23;0.30;;;9.60;99.90;;;;;;5015440;28;20252;-48
2022/11/21 10:16:21;;;;;;;0.10;0.10;;;10.00;99.90;;;;;;5011667;28;20207;-49
2022/11/21 10:19:14;;;;;;;2.40;0.50;;;10.60;99.90;;;;;;5029250;28;20198;-49
2022/11/21 10:22:03;;;;;;;0.30;0.13;;;11.20;99.90;;;;;;5031265;28;20208;-49
2022/11/21 10:24:47;;;;;;;3.23;0.20;;;11.30;99.90;;;;;;5030394;28;20724;-49
2022/11/21 10:27:17;;;;;;;0.60;0.30;;;11.30;99.90;;;;;;5027376;28;20219;-49
2022/11/21 10:29:49;;;;;;;0.77;0.20;;;10.90;99.90;;;;;;5025038;28;20241;-50
2022/11/21 10:32:23;;;;;;;2.40;0.30;;;10.70;99.90;;;;;;5015386;28;20198;-48
2022/11/21 10:34:53;;;;;;;0.37;0.20;;;10.70;99.90;;;;;;5030003;28;20240;-50
2022/11/21 10:37:31;;;;;;;0.90;0.23;;;10.60;99.90;;;;;;5031519;28;20284;-49
2022/11/21 10:40:06;;;;;;;0.50;0.50;;;10.50;99.90;;;;;;5026890;28;20202;-50
2022/11/21 10:42:38;;;;;;;0.60;0.60;;;10.40;99.90;;;;;;5034860;28;20264;-48
2022/11/21 10:45:17;;;;;;;1.27;0.40;;;10.30;99.90;;;;;;5033892;28;20323;-48
2022/11/21 10:47:47;;;;;;;0.40;0.30;;;10.30;99.90;;;;;;5033530;28;20220;-49
2022/11/21 10:50:32;;;;;;;0.80;0.63;;;10.20;99.90;;;;;;5023104;28;20198;-48
2022/11/21 10:54:31;;;;;;;0.43;0.43;;;10.20;99.90;;;;;;5032105;28;20204;-48
2022/11/21 10:56:02;;;;;;;0.63;0.40;;;10.30;99.90;;;;;;5025996;28;20211;-50
2022/11/21 10:58:41;;;;;;;0.77;0.20;;;10.40;99.90;;;;;;5033380;28;20202;-49
2022/11/21 11:01:20;;;;;;;0.97;0.30;;;10.20;99.90;;;;;;5026314;28;20220;-49
2022/11/21 11:04:06;;;;;;;0.30;0.30;;;10.20;99.90;;;;;;5021870;28;20277;-49
2022/11/21 11:06:33;;;;;;;0.20;0.20;;;10.10;99.90;;;;;;5014385;28;20281;-48
2022/11/21 11:09:00;;;;;;;0.20;0.20;;;10.10;99.90;;;;;;5025467;28;20251;-49
2022/11/21 11:11:27;;;;;;;0.80;0.20;;;10.10;99.90;;;;;;5028329;28;20258;-49
2022/11/21 11:13:58;;;;;;;1.40;0.20;;;10.10;99.90;;;;;;5024622;28;20224;-48
2022/11/21 11:16:26;;;;;;;0.73;0.20;;;10.20;99.90;;;;;;5033653;28;20618;-49
2022/11/21 11:18:59;;;;;;;0.20;0.10;;;10.30;99.90;;;;;;5033784;28;20308;-48
2022/11/21 11:21:28;;;;;;;0.30;0.13;;;10.30;99.90;;;;;;5033083;28;20668;-48
2022/11/21 11:24:06;;;;;;;0.33;0.10;;;10.30;99.90;;;;;;5024388;28;20315;-48
2022/11/21 11:26:33;;;;;;;0.40;0.13;;;10.20;99.90;;;;;;5024233;28;20208;-48
2022/11/21 11:29:10;;;;;;;0.20;0.20;;;10.20;99.90;;;;;;5033936;28;20208;-49
2022/11/21 11:31:41;;;;;;;0.50;0.30;;;10.20;99.90;;;;;;5033012;28;20289;-48
2022/11/21 11:34:14;;;;;;;0.20;0.20;;;10.30;99.90;;;;;;5024354;28;20245;-49
2022/11/21 11:36:53;;;;;;;1.23;0.73;;;10.20;99.90;;;;;;5031857;28;20338;-48
2022/11/21 11:39:35;;;;;;;0.57;0.40;;;10.30;99.90;;;;;;5033239;28;20250;-49
2022/11/21 11:48:18;;;;;;;2.27;0.63;;;10.40;99.90;;;;;;5033206;28;20231;-49
2022/11/21 11:50:50;;;;;;;0.50;0.40;;;10.40;99.90;;;;;;5031603;28;20286;-49
2022/11/21 11:53:20;;;;;;;1.27;0.30;;;10.40;99.90;;;;;;5026126;28;20209;-47
2022/11/21 11:55:53;;;;;;;0.10;0.10;;;10.40;99.90;;;;;;5030971;28;20221;-49
2022/11/21 11:58:26;;;;;;;0.20;0.20;;;10.60;99.90;;;;;;5026736;28;20198;-48
2022/11/21 12:01:00;;;;;;;1.43;0.40;;;10.50;99.90;;;;;;5020169;28;20232;-48
2022/11/21 12:03:36;;;;;;;0.40;0.10;;;10.40;99.90;;;;;;5027459;28;20204;-48
2022/11/21 12:06:09;;;;;;;1.07;0.10;;;10.40;99.90;;;;;;5033065;28;20265;-48
2022/11/21 12:08:43;;;;;;;0.20;0.20;;;10.40;99.90;;;;;;5032536;28;20270;-49
2022/11/21 12:17:08;;;;;;;0.40;0.20;;;10.60;99.90;;;;;;5022975;28;20192;-48
2022/11/21 12:19:38;;;;;;;0.20;0.20;;;10.60;99.90;;;;;;5028541;28;20198;-48
2022/11/21 12:22:10;;;;;;;1.80;0.10;;;10.60;99.90;;;;;;5012668;28;20197;-48
2022/11/21 12:24:37;;;;;;;0.43;0.30;;;10.60;99.90;;;;;;5011860;28;20241;-48
2022/11/21 12:27:16;;;;;;;0.20;0.20;;;10.60;99.90;;;;;;5012542;28;20221;-49
2022/11/21 12:30:03;;;;;;;1.90;0.40;;;10.60;99.90;;;;;;5022757;28;20688;-48
2022/11/21 12:32:45;;;;;;;0.10;0.10;;;10.60;99.90;;;;;;5015982;28;20253;-48
2022/11/21 12:35:31;;;;;;;0.87;0.30;;;10.50;99.90;;;;;;5029447;28;20297;-49
2022/11/21 12:38:09;;;;;;;2.10;0.40;;;10.30;99.90;;;;;;5032339;28;20597;-48
2022/11/21 12:40:47;;;;;;;0.30;0.30;;;10.30;99.90;;;;;;5032232;28;20838;-48
2022/11/21 12:43:24;;;;;;;0.27;0.27;;;10.30;99.90;;;;;;5031376;28;20254;-48
2022/11/21 12:45:56;;;;;;;1.60;0.20;;;10.30;99.90;;;;;;5032216;28;20247;-48
2022/11/21 12:55:02;;;;;;;1.03;0.20;;;10.10;99.90;;;;;;5011606;28;20327;-48
2022/11/21 12:57:43;;;;;;;0.50;0.30;;;10.20;99.90;;;;;;5012460;28;20197;-48
2022/11/21 13:00:18;;;;;;;0.20;0.20;;;10.10;99.90;;;;;;5025138;28;20202;-49
2022/11/21 13:03:05;;;;;;;0.20;0.00;;;10.10;99.90;;;;;;5017629;28;20196;-48
2022/11/21 13:05:36;;;;;;;0.23;0.10;;;10.10;99.90;;;;;;5023343;28;20228;-48
2022/11/21 13:08:09;;;;;;;0.30;0.10;;;10.10;99.90;;;;;;5031668;28;20224;-48
2022/11/21 13:10:41;;;;;;;0.50;0.20;;;10.10;99.90;;;;;;5031819;28;20211;-48
2022/11/21 13:13:17;;;;;;;1.70;0.20;;;10.00;99.90;;;;;;5031025;28;20210;-47
2022/11/21 13:15:56;;;;;;;2.80;0.10;;;10.00;99.90;;;;;;5031250;28;20274;-48
2022/11/21 13:18:27;;;;;;;0.10;0.10;;;10.00;99.90;;;;;;5030689;28;20646;-48
2022/11/21 13:20:54;;;;;;;0.10;0.10;;;10.00;99.90;;;;;;5023146;28;20202;-48
2022/11/21 13:23:38;;;;;;;0.10;0.10;;;9.90;99.90;;;;;;5030818;28;20217;-48
2022/11/21 13:26:47;;;;;;;0.20;0.20;;;9.80;99.90;;;;;;5031512;28;20204;-48
2022/11/21 13:29:16;;;;;;;0.20;0.20;;;9.80;99.90;;;;;;5000768;28;20211;-48
2022/11/21 13:31:43;;;;;;;0.70;0.30;;;9.80;99.90;;;;;;5030675;28;20201;-48
2022/11/21 13:34:37;;;;;;;0.20;0.20;;;9.80;99.90;;;;;;5018002;28;20282;-48
2022/11/21 13:37:05;;;;;;;0.40;0.20;;;9.80;99.90;;;;;;5023439;28;20249;-48
2022/11/21 13:39:38;;;;;;;0.33;0.20;;;9.80;99.90;;;;;;5031912;28;20210;-48
2022/11/21 13:44:55;;;;;;;0.33;0.10;;;9.80;99.90;;;;;;5022200;28;20225;-48